KMAE

Madera Municipal Airport

Madera, California, USA
METAR KMAE 221453Z AUTO 35005KT 10SM CLR 16/11 A2987 RMK AO2 SLP111 T01610106 51015
Observed Flight Rules
May-22 @ 14:53 UTC (34 minutes ago) Visual Flight Rules
Wind Visibility Clouds
350° at 5 knots 10 miles
  • Clear skies
Temperatures Readings
Current 16°C / 61°F
Dewpoint 11°C / 52°F
Humidity 72%
Altimeter 29.87" Hg
Pressure 1011.1 hPa
Elevation 77
METAR KMAE 221453Z AUTO 35005KT 10SM CLR 16/11 A2987 RMK AO2 SLP111 T01610106 51015
Observed Flight Rules
May-22 @ 14:53 UTC
(34 minutes ago)
VFR
Wind Visibility
350° at 5 knots 10 miles
Clouds
  • Clear skies
Temperature Dewpoint
16°C / 61°F 11°C / 52°F
Humidity Altimeter Pressure
72% 29.87" Hg 1011.1 hPa